x

Boston 16 Nm East Of Boston, Ma (44013) Wave Buoy

7:50 - Fri 29th May 2015 All times are EDT. -4 hours from GMT.

  • Sig Wave height 1.3ft
  • Swell Direction
  • Peak Period 5s
  • Average Period 5s
  • Wind
    9mph
  • Sea Temp 56°f
  • Luft Temp 56°f
  • Sea Pressure 1024.6mb
  • Boston 16 Nm East Of Boston, Ma
  • Boston 16 Nm East Of Boston, Ma

More Historic Weather Station data

Upgrade to MSW Pro to gain access to the past 30 days of data for over 8000 Wavebouys and Weather Stations around the globe.

Join Pro

Comparision Forecast

View Surf forecast
   
Fr 05/29 7:50 1.3ft 5s 5s 9
mph
1024.6mb 56f 56f
6:50 1.3ft 6s 6s 7 9 mph 1024.9mb 57f 56f
5:50 1.3ft 7s 6s 7 9 mph 1024.9mb 58f 56f
4:50 1.3ft 7s 6s 7
mph
1025.7mb 58f 57f
3:50 1.3ft 8s 6s 4 7 mph 1026.1mb 59f 58f
2:50 1.3ft 8s 6s 7
mph
1026.2mb 58f 58f
1:50 1ft 7s 6s 2 4 mph 1026.7mb 57f 58f
12:50 1ft 8s 5s 7 9 mph 1026.6mb 56f 59f
11:50 1ft 8s 6s 9 11 mph 1026.6mb 57f 58f
10:50 1ft 8s 5s 7 9 mph 1026.5mb 56f 58f
9:50 1.3ft 8s 6s 9
mph
1026.1mb 56f 60f
8:50 1.3ft 9s 6s 4 7 mph 1026mb 55f 57f
7:50 1.3ft 8s  -  7
mph
1025.5mb 55f 57f
6:50 1.3ft 8s 6s 7
mph
1025mb 54f 57f
5:50 1.6ft 6s 6s 4
mph
1024.7mb 54f 57f
4:50 1.6ft 8s 6s 4
mph
1024.2mb 54f 56f
3:50 1.6ft 8s 6s 4 7 mph 1023.7mb 54f 58f
2:50 1.3ft 8s 6s 7
mph
1023.3mb 54f 58f
1:50 1.3ft 8s 5s 9 11 mph 1023.1mb 54f 59f
12:50 1.3ft 8s 4s 9 11 mph 1023mb 53f 59f
Do 05/28 11:50 1.3ft 8s 4s 9
mph
1022.8mb 53f 60f
10:50 1.3ft 8s 4s 13 16 mph 1022mb 53f 60f
9:50 1.6ft 5s 4s 9 11 mph 1021.5mb 54f 61f
8:50 1.6ft 8s 4s 11
mph
1020.4mb 53f 64f
7:50 2ft 4s 4s 9 11 mph 1019.7mb 52f 68f
6:50 2.5ft 4s 4s 9 11 mph 1019mb 52f 61f
5:50 2.5ft 4s 4s 16 18 mph 1018.6mb 53f 65f
4:50 2.5ft 3s 4s 16 18 mph 1018.1mb 53f 64f
3:50 1.6ft 4s 4s 13
mph
1018.2mb 53f 60f
2:50 1.6ft 3s 3s 16 18 mph 1018.7mb 53f 59f
1:50 1.6ft 3s 3s 16
mph
1019.3mb 53f 60f
12:50 1ft 9s 4s 16 18 mph 1019.8mb 54f 62f
11:50 1.3ft 5s 4s 9 13 mph 1020.4mb 54f 62f
10:50 1.3ft 5s 3s 11 13 mph 1020.6mb 54f 62f
9:50 1.6ft 5s 3s 9 11 mph 1020.7mb 54f 58f
8:50 1.6ft 5s 4s 11 13 mph 1020.9mb 53f 58f
7:50 1.6ft 5s 4s 13 16 mph 1020.7mb 53f 58f
6:50 1.6ft 5s 4s 11 13 mph 1020.5mb 53f 58f
5:50 1.6ft 6s 4s 13
mph
1020.3mb 53f 58f
4:50 1.6ft 6s 4s 13 16 mph 1019.9mb 53f 58f
3:50 2ft 3s 4s 13 16 mph 1019.8mb 53f 58f
2:50 2ft 3s 3s 11
mph
1019.8mb 52f 58f
1:50 1.6ft 3s 3s 11
mph
1019.9mb 52f 59f
12:50 1.6ft 3s 3s 16
mph
1019.9mb 52f 59f
Mi 05/27 11:50 1.6ft 3s  -  16 18 mph 1020mb 52f 60f
10:50 2ft 3s 3s 13
mph
1020.5mb 52f 60f
9:50 2ft 4s 3s 13 16 mph 1020.8mb 52f 60f
8:50 2.5ft 5s 4s 13 16 mph 1020.4mb 53f 61f
7:50 3ft 4s 4s 18 22 mph 1019.6mb 53f 63f
6:50 3ft 4s 4s 25 27 mph 1018.6mb 54f 65f
5:50 3.5ft 4s 4s 25 31 mph 1018.2mb 54f 66f
4:50 3ft 3s 4s 16 20 mph 1018.8mb 54f 63f
3:50 2.5ft 4s 3s 16 18 mph 1019.2mb 55f 64f
2:50 2ft 4s 3s 18 20 mph 1019.5mb 55f 67f
1:50 1.6ft 3s 3s 16
mph
1020.1mb 55f 65f
12:50 1.3ft 3s 3s 13 16 mph 1020.8mb 54f 64f
11:50 1.3ft 3s 3s 13 16 mph 1020.9mb 54f 60f
10:50 1.3ft 3s 3s 11 13 mph 1021.3mb 54f 58f
9:50 1.3ft 3s 3s 9 11 mph 1021.4mb 53f 59f
8:50 1.3ft 3s 3s 13
mph
1021.5mb 53f 59f
7:50 1.3ft 3s 3s 7 9 mph 1021.8mb 53f 59f
6:50 1.3ft 3s 3s 11 13 mph 1021.6mb 53f 59f
5:50 1.6ft 3s 3s 13 16 mph 1021.1mb 53f 58f
4:50 1.3ft 6s 3s 11
mph
1020.9mb 53f 59f
3:50 1.3ft 6s 3s 9 11 mph 1020.7mb 53f 58f
2:50 1.3ft 3s 3s 9 11 mph 1021mb 53f 59f
1:50 1.3ft 3s 3s 7 9 mph 1021.4mb 53f 60f
12:50 1.6ft 3s 3s 13
mph
1021.2mb 54f 60f
Di 05/26 11:50 1.6ft 3s 3s 9 11 mph 1021.2mb 54f 60f
10:50 1.6ft 3s 3s 13
mph
1020.6mb 54f 62f
9:50 1.6ft 3s 3s 11 13 mph 1020.4mb 54f 62f
8:50 1.6ft 3s 3s 13
mph
1019.9mb 55f 63f
7:50 1.6ft 3s 3s 13 16 mph 1019.7mb 55f 64f
6:50 1.6ft 4s 3s 13
mph
1019.6mb 55f 66f
5:50 1.3ft 3s 3s 13 16 mph 1019.3mb 55f 66f
4:50 1.3ft 3s 3s 11 13 mph 1019.4mb 55f 65f
3:50 1.3ft 3s 3s 13
mph
1019.7mb 55f 66f
2:50 1.6ft 3s 3s 11 13 mph 1020.1mb 54f 65f
1:50 1.3ft 3s 3s 13
mph
1020.2mb 54f 63f
12:50 1.3ft 3s 3s 13 16 mph 1020.8mb 54f 62f
11:50 1.6ft 3s 3s 13 16 mph 1021.2mb 54f 61f
10:50 1.6ft 4s 3s 11
mph
1021.3mb 53f 61f
9:50 1.6ft 4s 3s 11 16 mph 1021.3mb 53f 61f
8:50 2ft 4s 3s 11 13 mph 1021.2mb 53f 59f
7:50 2ft 4s 3s 11
mph
1021.2mb 53f 59f
6:50 2ft 3s 3s 11
mph
1020.9mb 53f 59f
5:50 2.5ft 3s 3s 18 20 mph 1020.3mb 53f 59f
4:50 2ft 3s 3s 18 20 mph 1020.2mb 53f 60f
3:50 2ft 3s 3s 16 18 mph 1020.1mb 53f 60f
2:50 2ft 3s 3s 13 16 mph 1020.7mb 53f 60f
1:50 2ft 3s 3s 18 20 mph 1020.4mb 54f 60f
12:50 2ft 3s 3s 11
mph
1021.2mb 54f 59f